Terminal Aerodrome Forecast
Issued by NWS

Home | Current Version | Previous Version | Text Only | Print | Product List | Glossary On
Versions: 1 2 3 4 5 6 7 8 9 10 11 12 13 14 15 16 17 18 19 20
000
FTUS41 KPBZ 011700
TAFDUJ
TAF
KDUJ 011720Z 0118/0218 07004KT P6SM SCT011 BKN045
     FM020800 00000KT 1SM BR SCT001
     FM020900 00000KT 1/4SM FG OVC001
     FM021500 VRB03KT P6SM SCT025=

USA.gov is the U.S. government's official web portal to all federal, state and local government web resources and services.